createdAt,value
2022-08-07T00:00:39.771Z,55.63
2022-08-07T00:03:08.929Z,55.56
2022-08-07T00:05:37.144Z,55.69
2022-08-07T00:08:05.381Z,55.40
2022-08-07T00:10:35.138Z,55.12
2022-08-07T00:13:17.533Z,55.22
2022-08-07T00:15:52.421Z,55.44
2022-08-07T00:18:24.656Z,55.52
2022-08-07T00:21:01.419Z,55.67
2022-08-07T00:23:30.544Z,55.22
2022-08-07T00:26:00.282Z,55.34
2022-08-07T00:28:33.541Z,54.98
2022-08-07T00:31:05.982Z,55.32
2022-08-07T00:33:34.982Z,55.23
2022-08-07T00:36:02.058Z,55.09
2022-08-07T00:38:31.630Z,55.29
2022-08-07T00:41:01.362Z,55.28
2022-08-07T00:44:00.920Z,55.26
2022-08-07T00:46:16.270Z,55.65
2022-08-07T00:48:42.839Z,55.40
2022-08-07T00:51:10.159Z,55.17
2022-08-07T00:53:44.191Z,54.99
2022-08-07T00:56:18.253Z,55.08
2022-08-07T00:58:46.753Z,54.50
2022-08-07T01:01:15.025Z,55.17
2022-08-07T01:03:56.379Z,55.14
2022-08-07T01:06:28.544Z,55.04
2022-08-07T01:09:00.638Z,55.22
2022-08-07T01:12:09.144Z,54.37
2022-08-07T01:14:16.675Z,54.89
2022-08-07T01:16:47.163Z,54.54
2022-08-07T01:19:19.156Z,54.62
2022-08-07T01:21:53.287Z,54.73
2022-08-07T01:24:25.602Z,54.76
2022-08-07T01:26:53.937Z,55.14
2022-08-07T01:29:31.407Z,55.00
2022-08-07T01:32:01.261Z,55.22
2022-08-07T01:34:33.890Z,54.92
2022-08-07T01:37:09.806Z,55.59
2022-08-07T01:39:40.603Z,55.78
2022-08-07T01:42:38.115Z,56.04
2022-08-07T01:45:18.120Z,56.04
2022-08-07T01:48:18.926Z,56.12
2022-08-07T01:50:42.920Z,56.69
2022-08-07T01:53:20.957Z,56.19
2022-08-07T01:55:58.297Z,56.33
2022-08-07T01:58:33.101Z,56.29
2022-08-07T02:01:10.156Z,56.05
2022-08-07T02:04:09.307Z,55.63
2022-08-07T02:06:39.842Z,55.86
2022-08-07T02:09:11.698Z,56.20
2022-08-07T02:12:17.775Z,56.39
2022-08-07T02:14:55.989Z,56.22
2022-08-07T02:17:34.045Z,56.44
2022-08-07T02:20:04.660Z,56.67
2022-08-07T02:22:41.476Z,56.55
2022-08-07T02:25:17.510Z,56.42
2022-08-07T02:27:57.094Z,56.59
2022-08-07T02:30:24.943Z,56.55
2022-08-07T02:33:04.007Z,56.33
2022-08-07T02:36:28.943Z,56.65
2022-08-07T02:38:33.757Z,56.38
2022-08-07T02:41:04.437Z,56.31
2022-08-07T02:43:36.179Z,56.51
2022-08-07T02:46:08.479Z,56.10
2022-08-07T02:48:36.243Z,56.12
2022-08-07T02:51:29.104Z,56.27
2022-08-07T02:54:01.556Z,56.43
2022-08-07T02:56:31.577Z,56.41
2022-08-07T02:59:02.139Z,56.62
2022-08-07T03:01:35.538Z,57.00
2022-08-07T03:04:12.627Z,56.82
2022-08-07T03:06:44.802Z,56.63
2022-08-07T03:09:14.438Z,56.51
2022-08-07T03:11:52.315Z,56.54
2022-08-07T03:14:27.707Z,56.06
2022-08-07T03:16:56.954Z,56.53
2022-08-07T03:19:24.950Z,56.08
2022-08-07T03:21:56.909Z,56.23
2022-08-07T03:24:28.153Z,56.14
2022-08-07T03:27:03.047Z,56.24
2022-08-07T03:29:50.683Z,55.91
2022-08-07T03:32:24.704Z,55.77
2022-08-07T03:35:16.633Z,55.69
2022-08-07T03:37:46.186Z,55.46
2022-08-07T03:40:22.179Z,55.93
2022-08-07T03:42:50.874Z,55.64
2022-08-07T03:45:30.190Z,56.25
2022-08-07T03:48:01.525Z,56.16
2022-08-07T03:50:29.317Z,55.83
2022-08-07T03:52:59.513Z,56.04
2022-08-07T03:55:58.254Z,55.78
2022-08-07T03:59:09.712Z,56.15
2022-08-07T04:01:11.015Z,56.09
2022-08-07T04:03:53.223Z,56.05
2022-08-07T04:06:37.722Z,56.11
2022-08-07T04:09:08.451Z,56.06
2022-08-07T04:12:25.796Z,55.87
2022-08-07T04:14:38.995Z,55.60
2022-08-07T04:17:20.498Z,55.91
2022-08-07T04:19:52.818Z,55.85
2022-08-07T04:22:29.341Z,55.70
2022-08-07T04:24:58.731Z,55.88
2022-08-07T04:27:28.684Z,55.86
2022-08-07T04:30:11.935Z,55.77
2022-08-07T04:32:58.017Z,55.35
2022-08-07T04:35:27.199Z,55.33
2022-08-07T04:38:04.655Z,55.62
2022-08-07T04:40:52.073Z,55.97
2022-08-07T04:44:10.177Z,55.89
2022-08-07T04:47:04.290Z,55.94
2022-08-07T04:50:08.042Z,55.63
2022-08-07T04:52:51.846Z,55.66
2022-08-07T04:58:10.440Z,55.44
2022-08-07T04:58:47.282Z,55.74
2022-08-07T05:01:15.835Z,55.81
2022-08-07T05:04:06.975Z,55.40
2022-08-07T05:06:59.111Z,55.78
2022-08-07T05:09:45.346Z,55.89
2022-08-07T05:12:26.707Z,55.72
2022-08-07T05:15:23.349Z,56.04
2022-08-07T05:18:00.931Z,56.27
2022-08-07T05:20:37.940Z,58.21
2022-08-07T05:23:15.807Z,57.35
2022-08-07T05:26:10.770Z,54.80
2022-08-07T05:28:35.459Z,49.08
2022-08-07T05:31:03.826Z,46.19
2022-08-07T05:33:35.649Z,43.31
2022-08-07T05:36:12.288Z,41.32
2022-08-07T05:39:00.803Z,38.60
2022-08-07T05:42:00.624Z,37.11
2022-08-07T05:44:29.477Z,35.25
2022-08-07T05:47:00.290Z,34.34
2022-08-07T05:49:40.902Z,33.52
2022-08-07T05:52:11.777Z,32.63
2022-08-07T05:54:53.270Z,30.69
2022-08-07T05:57:26.686Z,30.84
2022-08-07T06:00:00.107Z,30.24
2022-08-07T06:02:40.440Z,29.36
2022-08-07T06:05:15.487Z,29.24
2022-08-07T06:08:12.888Z,29.24
2022-08-07T06:10:32.174Z,29.18
2022-08-07T06:13:01.179Z,29.60
2022-08-07T06:15:39.101Z,30.38
2022-08-07T06:18:13.782Z,30.34
2022-08-07T06:20:50.587Z,29.75
2022-08-07T06:24:37.008Z,28.71
2022-08-07T06:26:20.338Z,28.69
2022-08-07T06:28:53.588Z,28.30
2022-08-07T06:31:24.121Z,27.81
2022-08-07T06:34:05.804Z,28.11
2022-08-07T06:36:35.218Z,27.50
2022-08-07T06:40:15.649Z,27.22
2022-08-07T06:42:37.359Z,27.92
2022-08-07T06:45:24.195Z,27.06
2022-08-07T06:48:01.837Z,27.44
2022-08-07T06:50:39.246Z,27.32
2022-08-07T06:53:18.676Z,28.21
2022-08-07T06:56:01.362Z,27.06
2022-08-07T06:58:32.267Z,26.88
2022-08-07T07:01:08.106Z,27.80
2022-08-07T07:03:48.072Z,27.44
2022-08-07T07:06:26.333Z,27.63
2022-08-07T07:08:54.530Z,26.40
2022-08-07T07:12:08.195Z,25.79
2022-08-07T07:14:10.178Z,26.24
2022-08-07T07:16:49.550Z,27.23
2022-08-07T07:19:56.309Z,26.74
2022-08-07T07:22:33.900Z,26.45
2022-08-07T07:25:13.988Z,25.81
2022-08-07T07:27:58.466Z,26.13
2022-08-07T07:30:39.837Z,26.20
2022-08-07T07:33:11.911Z,26.11
2022-08-07T07:35:51.897Z,26.04
2022-08-07T07:38:31.103Z,26.37
2022-08-07T07:41:03.390Z,26.92
2022-08-07T07:44:14.365Z,26.79
2022-08-07T07:46:38.154Z,27.14
2022-08-07T07:49:15.702Z,27.06
2022-08-07T07:51:59.900Z,26.71
2022-08-07T07:54:28.447Z,25.74
2022-08-07T07:56:57.506Z,25.21
2022-08-07T07:59:52.911Z,26.20
2022-08-07T08:02:34.112Z,26.66
2022-08-07T08:05:05.230Z,25.61
2022-08-07T08:07:42.375Z,25.56
2022-08-07T08:10:37.773Z,26.47
2022-08-07T08:13:07.321Z,25.86
2022-08-07T08:15:57.981Z,24.97
2022-08-07T08:18:28.056Z,25.16
2022-08-07T08:20:58.154Z,26.27
2022-08-07T08:23:47.124Z,26.05
2022-08-07T08:26:34.364Z,25.78
2022-08-07T08:29:03.965Z,27.43
2022-08-07T08:32:17.166Z,25.60
2022-08-07T08:34:33.911Z,26.50
2022-08-07T08:37:03.202Z,27.67
2022-08-07T08:39:39.635Z,30.01
2022-08-07T08:42:31.785Z,29.29
2022-08-07T08:45:14.085Z,27.86
2022-08-07T08:48:28.295Z,28.22
2022-08-07T08:51:03.367Z,28.56
2022-08-07T08:53:57.902Z,30.17
2022-08-07T08:56:38.894Z,31.18
2022-08-07T08:59:29.246Z,30.42
2022-08-07T09:02:14.689Z,30.83
2022-08-07T09:04:53.915Z,30.40
2022-08-07T09:07:58.791Z,30.88
2022-08-07T09:10:32.500Z,30.64
2022-08-07T09:13:20.151Z,31.66
2022-08-07T09:16:22.504Z,33.58
2022-08-07T09:19:52.095Z,33.03
2022-08-07T09:24:31.217Z,32.00
2022-08-07T09:25:17.905Z,30.66
2022-08-07T09:28:05.050Z,29.71
2022-08-07T09:31:06.365Z,31.31
2022-08-07T09:33:58.949Z,30.24
2022-08-07T09:36:43.014Z,31.95
2022-08-07T09:39:53.103Z,29.67
2022-08-07T09:42:40.479Z,29.35
2022-08-07T09:46:11.280Z,29.70
2022-08-07T09:48:29.661Z,31.20
2022-08-07T09:52:15.745Z,31.12
2022-08-07T09:54:03.651Z,30.99
2022-08-07T09:56:49.394Z,30.59
2022-08-07T09:59:22.076Z,31.54
2022-08-07T10:02:08.626Z,31.82
2022-08-07T10:05:12.737Z,32.71
2022-08-07T10:07:53.673Z,32.75
2022-08-07T10:11:07.871Z,31.90
2022-08-07T10:14:00.260Z,30.04
2022-08-07T10:16:36.164Z,32.17
2022-08-07T10:19:31.427Z,31.67
2022-08-07T10:22:33.822Z,31.88
2022-08-07T10:25:16.261Z,31.78
2022-08-07T10:28:12.635Z,32.71
2022-08-07T10:31:24.134Z,32.49
2022-08-07T10:34:32.273Z,32.41
2022-08-07T10:37:13.196Z,32.04
2022-08-07T10:40:05.653Z,32.68
2022-08-07T10:42:46.886Z,31.79
2022-08-07T10:45:48.095Z,32.28
2022-08-07T10:48:38.772Z,30.44
2022-08-07T10:51:57.232Z,32.39
2022-08-07T10:54:18.440Z,30.29
2022-08-07T10:57:08.484Z,29.10
2022-08-07T11:00:02.111Z,30.86
2022-08-07T11:02:33.000Z,29.41
2022-08-07T11:05:48.823Z,30.74
2022-08-07T11:08:48.672Z,29.71
2022-08-07T11:11:24.312Z,28.99
2022-08-07T11:14:45.762Z,27.99
2022-08-07T11:17:02.234Z,27.87
2022-08-07T11:19:57.302Z,30.49
2022-08-07T11:22:53.650Z,29.87
2022-08-07T11:25:36.237Z,30.08
2022-08-07T11:29:01.044Z,30.61
2022-08-07T11:31:46.624Z,30.45
2022-08-07T11:34:29.186Z,31.34
2022-08-07T11:37:03.045Z,28.53
2022-08-07T11:40:00.124Z,31.02
2022-08-07T11:42:52.393Z,30.71
2022-08-07T11:45:58.158Z,29.07
2022-08-07T11:49:10.293Z,30.41
2022-08-07T11:51:46.823Z,27.93
2022-08-07T11:54:39.081Z,29.90
2022-08-07T11:57:20.573Z,30.26
2022-08-07T12:00:27.571Z,30.05
2022-08-07T12:03:45.701Z,29.82
2022-08-07T12:06:37.863Z,29.49
2022-08-07T12:09:24.548Z,28.62
2022-08-07T12:12:12.551Z,29.25
2022-08-07T12:15:00.091Z,29.38
2022-08-07T12:17:40.580Z,29.92
2022-08-07T12:20:35.175Z,30.14
2022-08-07T12:24:04.964Z,30.37
2022-08-07T12:26:29.097Z,29.56
2022-08-07T12:29:11.641Z,29.30
2022-08-07T12:32:01.593Z,30.88
2022-08-07T12:34:35.898Z,31.03
2022-08-07T12:37:08.176Z,32.52
2022-08-07T12:39:44.247Z,30.69
2022-08-07T12:42:27.612Z,28.90
2022-08-07T12:44:58.687Z,29.20
2022-08-07T12:47:37.761Z,30.22
2022-08-07T12:50:39.015Z,29.44
2022-08-07T12:53:30.395Z,30.24
2022-08-07T12:56:34.679Z,29.90
2022-08-07T12:59:05.118Z,29.65
2022-08-07T13:02:10.072Z,29.47
2022-08-07T13:05:01.601Z,29.35
2022-08-07T13:08:12.304Z,29.68
2022-08-07T13:10:51.644Z,29.57
2022-08-07T13:13:48.354Z,31.46
2022-08-07T13:16:40.904Z,28.80
2022-08-07T13:19:46.248Z,29.27
2022-08-07T13:22:37.697Z,28.54
2022-08-07T13:25:29.720Z,31.08
2022-08-07T13:28:12.413Z,29.10
2022-08-07T13:30:52.347Z,28.25
2022-08-07T13:34:29.974Z,28.70
2022-08-07T13:36:40.451Z,28.67
2022-08-07T13:39:49.826Z,28.63
2022-08-07T13:42:10.407Z,28.32
2022-08-07T13:44:39.747Z,29.72
2022-08-07T13:47:10.607Z,29.15
2022-08-07T13:50:33.870Z,28.73
2022-08-07T13:52:40.934Z,29.00
2022-08-07T13:55:13.189Z,28.12
2022-08-07T13:58:02.018Z,28.76
2022-08-07T14:00:39.554Z,29.00
2022-08-07T14:03:13.919Z,28.25
2022-08-07T14:05:57.226Z,29.38
2022-08-07T14:08:25.253Z,29.29
2022-08-07T14:11:14.554Z,28.98
2022-08-07T14:13:45.190Z,28.64
2022-08-07T14:16:16.127Z,29.33
2022-08-07T14:18:57.227Z,28.72
2022-08-07T14:22:01.476Z,30.10
2022-08-07T14:24:33.247Z,29.89
2022-08-07T14:28:09.314Z,29.75
2022-08-07T14:30:07.605Z,30.04
2022-08-07T14:32:47.964Z,29.95
2022-08-07T14:35:45.807Z,29.77
2022-08-07T14:38:09.443Z,30.34
2022-08-07T14:40:59.578Z,31.14
2022-08-07T14:43:57.612Z,30.40
2022-08-07T14:46:30.677Z,31.30
2022-08-07T14:52:05.048Z,31.52
2022-08-07T14:54:42.161Z,32.30
2022-08-07T14:57:19.724Z,31.42
2022-08-07T15:00:05.062Z,31.53
2022-08-07T15:02:34.611Z,32.48
2022-08-07T15:05:02.424Z,32.28
2022-08-07T15:07:50.953Z,32.32
2022-08-07T15:10:26.650Z,32.77
2022-08-07T15:13:05.716Z,32.13
2022-08-07T15:15:42.778Z,32.90
2022-08-07T15:18:29.518Z,32.46
2022-08-07T15:25:15.652Z,32.24
2022-08-07T15:26:49.501Z,32.81
2022-08-07T15:30:09.276Z,32.13
2022-08-07T15:32:07.756Z,31.78
2022-08-07T15:34:50.440Z,32.28
2022-08-07T15:37:27.575Z,31.64
2022-08-07T15:39:58.486Z,31.99
2022-08-07T15:42:43.863Z,32.54
2022-08-07T15:45:15.104Z,32.67
2022-08-07T15:48:02.057Z,32.26
2022-08-07T15:51:01.511Z,32.35
2022-08-07T15:53:52.079Z,33.04
2022-08-07T15:56:14.112Z,32.59
2022-08-07T15:58:52.335Z,33.35
2022-08-07T16:01:38.565Z,34.26
2022-08-07T16:04:15.307Z,34.45
2022-08-07T16:06:54.317Z,34.62
2022-08-07T16:09:53.911Z,35.17
2022-08-07T16:13:05.555Z,34.60
2022-08-07T16:16:06.861Z,35.41
2022-08-07T16:19:09.530Z,34.71
2022-08-07T16:22:17.954Z,34.75
2022-08-07T16:25:02.482Z,35.94
2022-08-07T16:30:09.135Z,35.05
2022-08-07T16:31:50.773Z,34.92
2022-08-07T16:34:23.885Z,35.05
2022-08-07T16:37:02.082Z,35.91
2022-08-07T16:39:40.676Z,35.83
2022-08-07T16:42:42.379Z,35.97
2022-08-07T16:46:40.336Z,36.87
2022-08-07T16:49:10.607Z,36.43
2022-08-07T16:52:01.232Z,36.17
2022-08-07T16:54:55.190Z,36.58
2022-08-07T16:58:02.156Z,37.02
2022-08-07T17:00:41.327Z,36.87
2022-08-07T17:03:17.093Z,36.55
2022-08-07T17:06:29.825Z,36.17
2022-08-07T17:09:15.778Z,36.96
2022-08-07T17:12:34.214Z,36.54
2022-08-07T17:15:15.774Z,36.68
2022-08-07T17:17:48.306Z,36.61
2022-08-07T17:20:31.594Z,35.92
2022-08-07T17:23:17.386Z,36.99
2022-08-07T17:26:23.486Z,37.17
2022-08-07T17:28:57.923Z,36.74
2022-08-07T17:32:03.120Z,37.04
2022-08-07T17:35:40.157Z,37.08
2022-08-07T17:38:06.572Z,37.10
2022-08-07T17:40:39.614Z,37.49
2022-08-07T17:43:18.300Z,36.78
2022-08-07T17:45:54.902Z,37.62
2022-08-07T17:48:32.362Z,37.64
2022-08-07T17:51:16.330Z,37.20
2022-08-07T17:54:39.835Z,37.86
2022-08-07T17:57:58.406Z,37.50
2022-08-07T18:00:27.519Z,37.69
2022-08-07T18:03:10.057Z,38.43
2022-08-07T18:06:01.574Z,38.41
2022-08-07T18:08:34.198Z,38.12
2022-08-07T18:12:16.403Z,38.69
2022-08-07T18:14:18.555Z,38.92
2022-08-07T18:17:10.796Z,39.31
2022-08-07T18:21:11.870Z,38.57
2022-08-07T18:22:57.658Z,39.15
2022-08-07T18:25:40.755Z,38.75
2022-08-07T18:28:35.974Z,38.33
2022-08-07T18:31:49.869Z,38.93
2022-08-07T18:34:53.188Z,38.26
2022-08-07T18:38:55.559Z,38.91
2022-08-07T18:40:54.866Z,38.23
2022-08-07T18:43:57.556Z,38.93
2022-08-07T18:46:37.111Z,38.64
2022-08-07T18:50:36.716Z,38.74
2022-08-07T18:52:53.826Z,39.28
2022-08-07T18:55:42.392Z,38.43
2022-08-07T18:58:37.424Z,38.32
2022-08-07T19:02:19.190Z,38.71
2022-08-07T19:04:32.125Z,39.10
2022-08-07T19:07:16.331Z,38.70
2022-08-07T19:10:04.185Z,39.33
2022-08-07T19:12:49.145Z,39.50
2022-08-07T19:16:03.178Z,39.65
2022-08-07T19:18:34.816Z,39.40
2022-08-07T19:21:48.033Z,40.04
2022-08-07T19:24:48.792Z,39.48
2022-08-07T19:28:58.448Z,40.15
2022-08-07T19:31:02.151Z,39.76
2022-08-07T19:33:15.765Z,40.93
2022-08-07T19:35:46.108Z,40.78
2022-08-07T19:38:17.656Z,41.57
2022-08-07T19:40:49.427Z,41.84
2022-08-07T19:43:44.173Z,41.30
2022-08-07T19:46:10.727Z,41.18
2022-08-07T19:48:42.135Z,41.90
2022-08-07T19:51:20.251Z,41.96
2022-08-07T19:54:34.190Z,42.17
2022-08-07T19:57:52.020Z,42.22
2022-08-07T19:59:40.813Z,42.47
2022-08-07T20:02:19.784Z,42.22
2022-08-07T20:04:50.176Z,42.22
2022-08-07T20:07:23.409Z,42.68
2022-08-07T20:10:36.314Z,42.50
2022-08-07T20:12:44.757Z,43.04
2022-08-07T20:15:22.250Z,43.29
2022-08-07T20:18:01.264Z,42.92
2022-08-07T20:20:31.421Z,43.23
2022-08-07T20:23:02.184Z,43.91
2022-08-07T20:25:51.168Z,44.31
2022-08-07T20:28:20.657Z,44.81
2022-08-07T20:30:57.072Z,45.90
2022-08-07T20:33:37.962Z,46.18
2022-08-07T20:36:07.740Z,45.43
2022-08-07T20:38:35.803Z,45.69
2022-08-07T20:41:34.036Z,45.93
2022-08-07T20:44:06.297Z,46.04
2022-08-07T20:46:44.176Z,46.83
2022-08-07T20:49:58.311Z,47.09
2022-08-07T20:52:07.815Z,47.49
2022-08-07T20:54:45.672Z,48.54
2022-08-07T20:57:28.735Z,48.50
2022-08-07T21:00:09.178Z,48.86
2022-08-07T21:02:58.107Z,49.05
2022-08-07T21:05:50.975Z,49.09
2022-08-07T21:08:36.757Z,49.54
2022-08-07T21:11:10.787Z,49.54
2022-08-07T21:14:16.506Z,49.65
2022-08-07T21:16:56.162Z,50.04
2022-08-07T21:19:32.521Z,48.99
2022-08-07T21:22:19.517Z,49.71
2022-08-07T21:24:47.934Z,50.62
2022-08-07T21:27:47.107Z,49.70
2022-08-07T21:30:16.992Z,50.03
2022-08-07T21:32:52.908Z,50.15
2022-08-07T21:35:34.915Z,49.78
2022-08-07T21:38:27.565Z,49.76
2022-08-07T21:41:10.995Z,49.67
2022-08-07T21:44:28.202Z,49.44
2022-08-07T21:47:34.701Z,50.29
2022-08-07T21:50:04.796Z,50.12
2022-08-07T21:52:42.280Z,49.70
2022-08-07T21:55:30.209Z,50.02
2022-08-07T21:58:32.871Z,50.13
2022-08-07T22:01:08.421Z,49.95
2022-08-07T22:03:47.615Z,50.11
2022-08-07T22:06:30.532Z,49.74
2022-08-07T22:09:06.763Z,50.24
2022-08-07T22:12:04.761Z,50.47
2022-08-07T22:14:36.213Z,50.73
2022-08-07T22:17:05.004Z,51.17
2022-08-07T22:20:04.310Z,50.67
2022-08-07T22:22:44.867Z,50.46
2022-08-07T22:25:36.553Z,50.32
2022-08-07T22:28:32.137Z,50.98
2022-08-07T22:31:12.541Z,51.09
2022-08-07T22:34:12.838Z,51.16
2022-08-07T22:37:13.299Z,50.71
2022-08-07T22:40:09.023Z,51.07
2022-08-07T22:42:40.020Z,50.87
2022-08-07T22:46:04.206Z,51.77
2022-08-07T22:48:31.579Z,51.70
2022-08-07T22:51:17.843Z,51.66
2022-08-07T22:54:08.202Z,51.50
2022-08-07T22:57:16.871Z,51.53
2022-08-07T22:59:47.123Z,51.44
2022-08-07T23:02:29.910Z,52.24
2022-08-07T23:06:10.235Z,52.58
2022-08-07T23:08:46.092Z,51.90
2022-08-07T23:11:48.429Z,52.60
2022-08-07T23:14:47.444Z,52.80
2022-08-07T23:17:41.737Z,52.39
2022-08-07T23:20:51.605Z,52.16
2022-08-07T23:24:06.086Z,52.26
2022-08-07T23:26:23.445Z,52.39
2022-08-07T23:29:43.551Z,51.64
2022-08-07T23:34:21.734Z,51.50
2022-08-07T23:35:44.119Z,51.11
2022-08-07T23:38:18.995Z,50.90
2022-08-07T23:41:33.013Z,51.09
2022-08-07T23:44:14.035Z,51.67
2022-08-07T23:46:53.139Z,51.88
2022-08-07T23:49:51.780Z,52.29
2022-08-07T23:53:00.144Z,52.35
2022-08-07T23:56:05.324Z,52.16
2022-08-07T23:58:44.430Z,52.31
